sensor_id;sensor_type;location;lat;lon;timestamp;temperature;humidity
16247;DHT22;8231;50.866;7.944;2023-11-21T00:00:43;7.20;99.90
16247;DHT22;8231;50.866;7.944;2023-11-21T00:03:12;7.10;99.90
16247;DHT22;8231;50.866;7.944;2023-11-21T00:05:42;7.10;99.90
16247;DHT22;8231;50.866;7.944;2023-11-21T00:08:10;7.00;99.90
16247;DHT22;8231;50.866;7.944;2023-11-21T00:10:40;7.10;99.90
16247;DHT22;8231;50.866;7.944;2023-11-21T00:13:08;7.20;99.90
16247;DHT22;8231;50.866;7.944;2023-11-21T00:15:39;7.00;99.90
16247;DHT22;8231;50.866;7.944;2023-11-21T00:18:08;7.00;99.90
16247;DHT22;8231;50.866;7.944;2023-11-21T00:20:37;7.00;99.90
16247;DHT22;8231;50.866;7.944;2023-11-21T00:23:05;7.00;99.90
16247;DHT22;8231;50.866;7.944;2023-11-21T00:25:33;7.00;99.90
16247;DHT22;8231;50.866;7.944;2023-11-21T00:28:03;7.00;99.90
16247;DHT22;8231;50.866;7.944;2023-11-21T00:30:32;7.00;99.90
16247;DHT22;8231;50.866;7.944;2023-11-21T00:33:01;7.00;99.90
16247;DHT22;8231;50.866;7.944;2023-11-21T00:35:29;7.00;99.90
16247;DHT22;8231;50.866;7.944;2023-11-21T00:37:57;7.00;99.90
16247;DHT22;8231;50.866;7.944;2023-11-21T00:40:25;7.00;99.90
16247;DHT22;8231;50.866;7.944;2023-11-21T00:42:54;7.00;99.90
16247;DHT22;8231;50.866;7.944;2023-11-21T00:45:25;7.00;99.90
16247;DHT22;8231;50.866;7.944;2023-11-21T00:47:54;7.00;99.90
16247;DHT22;8231;50.866;7.944;2023-11-21T00:50:22;7.00;99.90
16247;DHT22;8231;50.866;7.944;2023-11-21T00:52:51;7.00;99.90
16247;DHT22;8231;50.866;7.944;2023-11-21T00:55:19;7.00;99.90
16247;DHT22;8231;50.866;7.944;2023-11-21T00:57:48;6.90;99.90
16247;DHT22;8231;50.866;7.944;2023-11-21T01:00:17;7.00;99.90
16247;DHT22;8231;50.866;7.944;2023-11-21T01:02:46;7.00;99.90
16247;DHT22;8231;50.866;7.944;2023-11-21T01:05:15;6.90;99.90
16247;DHT22;8231;50.866;7.944;2023-11-21T01:07:43;6.90;99.90
16247;DHT22;8231;50.866;7.944;2023-11-21T01:10:11;7.00;99.90
16247;DHT22;8231;50.866;7.944;2023-11-21T01:12:40;7.00;99.90
16247;DHT22;8231;50.866;7.944;2023-11-21T01:15:08;7.00;99.90
16247;DHT22;8231;50.866;7.944;2023-11-21T01:17:38;7.00;99.90
16247;DHT22;8231;50.866;7.944;2023-11-21T01:20:10;7.00;99.90
16247;DHT22;8231;50.866;7.944;2023-11-21T01:22:41;7.00;99.90
16247;DHT22;8231;50.866;7.944;2023-11-21T01:25:10;7.00;99.90
16247;DHT22;8231;50.866;7.944;2023-11-21T01:27:42;7.00;99.90
16247;DHT22;8231;50.866;7.944;2023-11-21T01:30:11;6.90;99.90
16247;DHT22;8231;50.866;7.944;2023-11-21T01:32:39;6.90;99.90
16247;DHT22;8231;50.866;7.944;2023-11-21T01:35:09;6.90;99.90
16247;DHT22;8231;50.866;7.944;2023-11-21T01:37:38;6.90;99.90
16247;DHT22;8231;50.866;7.944;2023-11-21T01:40:08;6.90;99.90
16247;DHT22;8231;50.866;7.944;2023-11-21T01:42:42;6.90;99.90
16247;DHT22;8231;50.866;7.944;2023-11-21T01:45:10;6.90;99.90
16247;DHT22;8231;50.866;7.944;2023-11-21T01:47:40;6.90;99.90
16247;DHT22;8231;50.866;7.944;2023-11-21T01:50:14;6.90;99.90
16247;DHT22;8231;50.866;7.944;2023-11-21T01:52:45;6.90;99.90
16247;DHT22;8231;50.866;7.944;2023-11-21T01:55:15;6.90;99.90
16247;DHT22;8231;50.866;7.944;2023-11-21T01:57:54;6.90;99.90
16247;DHT22;8231;50.866;7.944;2023-11-21T02:00:24;6.90;99.90
16247;DHT22;8231;50.866;7.944;2023-11-21T02:02:52;6.90;99.90
16247;DHT22;8231;50.866;7.944;2023-11-21T02:05:23;6.90;99.90
16247;DHT22;8231;50.866;7.944;2023-11-21T02:07:51;6.90;99.90
16247;DHT22;8231;50.866;7.944;2023-11-21T02:10:19;6.90;99.90
16247;DHT22;8231;50.866;7.944;2023-11-21T02:12:50;6.90;99.90
16247;DHT22;8231;50.866;7.944;2023-11-21T02:15:19;6.90;99.90
16247;DHT22;8231;50.866;7.944;2023-11-21T02:18:09;6.90;99.90
16247;DHT22;8231;50.866;7.944;2023-11-21T02:20:39;6.90;99.90
16247;DHT22;8231;50.866;7.944;2023-11-21T02:23:10;6.90;99.90
16247;DHT22;8231;50.866;7.944;2023-11-21T02:25:39;6.90;99.90
16247;DHT22;8231;50.866;7.944;2023-11-21T02:28:09;6.80;99.90
16247;DHT22;8231;50.866;7.944;2023-11-21T02:30:39;6.80;99.90
16247;DHT22;8231;50.866;7.944;2023-11-21T02:33:08;6.80;99.90
16247;DHT22;8231;50.866;7.944;2023-11-21T02:35:36;6.80;99.90
16247;DHT22;8231;50.866;7.944;2023-11-21T02:38:04;6.80;99.90
16247;DHT22;8231;50.866;7.944;2023-11-21T02:40:34;6.80;99.90
16247;DHT22;8231;50.866;7.944;2023-11-21T02:43:02;6.80;99.90
16247;DHT22;8231;50.866;7.944;2023-11-21T02:45:32;6.80;99.90
16247;DHT22;8231;50.866;7.944;2023-11-21T02:48:01;6.80;99.90
16247;DHT22;8231;50.866;7.944;2023-11-21T02:50:29;6.80;99.90
16247;DHT22;8231;50.866;7.944;2023-11-21T02:52:58;6.80;99.90
16247;DHT22;8231;50.866;7.944;2023-11-21T02:55:27;6.80;99.90
16247;DHT22;8231;50.866;7.944;2023-11-21T02:57:57;6.80;99.90
16247;DHT22;8231;50.866;7.944;2023-11-21T03:00:25;6.80;99.90
16247;DHT22;8231;50.866;7.944;2023-11-21T03:02:55;6.80;99.90
16247;DHT22;8231;50.866;7.944;2023-11-21T03:05:25;6.70;99.90
16247;DHT22;8231;50.866;7.944;2023-11-21T03:07:53;6.70;99.90
16247;DHT22;8231;50.866;7.944;2023-11-21T03:10:22;6.70;99.90
16247;DHT22;8231;50.866;7.944;2023-11-21T03:12:50;6.70;99.90
16247;DHT22;8231;50.866;7.944;2023-11-21T03:15:20;6.70;99.90
16247;DHT22;8231;50.866;7.944;2023-11-21T03:17:48;6.70;99.90
16247;DHT22;8231;50.866;7.944;2023-11-21T03:20:17;6.70;99.90
16247;DHT22;8231;50.866;7.944;2023-11-21T03:22:45;6.70;99.90
16247;DHT22;8231;50.866;7.944;2023-11-21T03:25:15;6.70;99.90
16247;DHT22;8231;50.866;7.944;2023-11-21T03:27:44;6.70;99.90
16247;DHT22;8231;50.866;7.944;2023-11-21T03:30:13;6.70;99.90
16247;DHT22;8231;50.866;7.944;2023-11-21T03:32:43;6.70;99.90
16247;DHT22;8231;50.866;7.944;2023-11-21T03:35:11;6.70;99.90
16247;DHT22;8231;50.866;7.944;2023-11-21T03:37:39;6.70;99.90
16247;DHT22;8231;50.866;7.944;2023-11-21T03:40:09;6.70;99.90
16247;DHT22;8231;50.866;7.944;2023-11-21T03:42:39;6.70;99.90
16247;DHT22;8231;50.866;7.944;2023-11-21T03:45:08;6.70;99.90
16247;DHT22;8231;50.866;7.944;2023-11-21T03:47:36;6.70;99.90
16247;DHT22;8231;50.866;7.944;2023-11-21T03:50:07;6.70;99.90
16247;DHT22;8231;50.866;7.944;2023-11-21T03:52:36;6.70;99.90
16247;DHT22;8231;50.866;7.944;2023-11-21T03:55:05;6.70;99.90
16247;DHT22;8231;50.866;7.944;2023-11-21T03:57:33;6.70;99.90
16247;DHT22;8231;50.866;7.944;2023-11-21T04:00:05;6.70;99.90
16247;DHT22;8231;50.866;7.944;2023-11-21T04:02:38;6.70;99.90
16247;DHT22;8231;50.866;7.944;2023-11-21T04:05:08;6.70;99.90
16247;DHT22;8231;50.866;7.944;2023-11-21T04:07:36;6.70;99.90
16247;DHT22;8231;50.866;7.944;2023-11-21T04:10:07;6.80;99.90
16247;DHT22;8231;50.866;7.944;2023-11-21T04:12:36;6.70;99.90
16247;DHT22;8231;50.866;7.944;2023-11-21T04:15:05;6.70;99.90
16247;DHT22;8231;50.866;7.944;2023-11-21T04:17:35;6.80;99.90
16247;DHT22;8231;50.866;7.944;2023-11-21T04:20:04;6.80;99.90
16247;DHT22;8231;50.866;7.944;2023-11-21T04:22:41;6.80;99.90
16247;DHT22;8231;50.866;7.944;2023-11-21T04:25:13;7.00;99.90
16247;DHT22;8231;50.866;7.944;2023-11-21T04:27:41;6.80;99.90
16247;DHT22;8231;50.866;7.944;2023-11-21T04:30:11;6.80;99.90
16247;DHT22;8231;50.866;7.944;2023-11-21T04:32:40;6.80;99.90
16247;DHT22;8231;50.866;7.944;2023-11-21T04:35:09;6.80;99.90
16247;DHT22;8231;50.866;7.944;2023-11-21T04:37:39;6.80;99.90
16247;DHT22;8231;50.866;7.944;2023-11-21T04:40:08;6.80;99.90
16247;DHT22;8231;50.866;7.944;2023-11-21T04:42:37;6.80;99.90
16247;DHT22;8231;50.866;7.944;2023-11-21T04:45:07;6.70;99.90
16247;DHT22;8231;50.866;7.944;2023-11-21T04:47:40;6.80;99.90
16247;DHT22;8231;50.866;7.944;2023-11-21T04:50:09;6.70;99.90
16247;DHT22;8231;50.866;7.944;2023-11-21T04:52:37;6.80;99.90
16247;DHT22;8231;50.866;7.944;2023-11-21T04:55:07;6.70;99.90
16247;DHT22;8231;50.866;7.944;2023-11-21T04:57:37;6.70;99.90
16247;DHT22;8231;50.866;7.944;2023-11-21T05:00:07;6.70;99.90
16247;DHT22;8231;50.866;7.944;2023-11-21T05:02:35;6.70;99.90
16247;DHT22;8231;50.866;7.944;2023-11-21T05:05:06;6.70;99.90
16247;DHT22;8231;50.866;7.944;2023-11-21T05:07:34;6.70;99.90
16247;DHT22;8231;50.866;7.944;2023-11-21T05:10:04;6.70;99.90
16247;DHT22;8231;50.866;7.944;2023-11-21T05:12:40;6.70;99.90
16247;DHT22;8231;50.866;7.944;2023-11-21T05:15:09;6.70;99.90
16247;DHT22;8231;50.866;7.944;2023-11-21T05:17:38;6.70;99.90
16247;DHT22;8231;50.866;7.944;2023-11-21T05:20:09;6.70;99.90
16247;DHT22;8231;50.866;7.944;2023-11-21T05:22:38;6.70;99.90
16247;DHT22;8231;50.866;7.944;2023-11-21T05:25:07;6.70;99.90
16247;DHT22;8231;50.866;7.944;2023-11-21T05:27:35;6.70;99.90
16247;DHT22;8231;50.866;7.944;2023-11-21T05:30:06;6.70;99.90
16247;DHT22;8231;50.866;7.944;2023-11-21T05:32:36;6.70;99.90
16247;DHT22;8231;50.866;7.944;2023-11-21T05:35:05;6.80;99.90
16247;DHT22;8231;50.866;7.944;2023-11-21T05:37:36;6.70;99.90
16247;DHT22;8231;50.866;7.944;2023-11-21T05:40:06;6.70;99.90
16247;DHT22;8231;50.866;7.944;2023-11-21T05:42:36;6.70;99.90
16247;DHT22;8231;50.866;7.944;2023-11-21T05:45:07;7.10;99.90
16247;DHT22;8231;50.866;7.944;2023-11-21T05:47:58;6.70;99.90
16247;DHT22;8231;50.866;7.944;2023-11-21T05:50:27;6.70;99.90
16247;DHT22;8231;50.866;7.944;2023-11-21T05:52:55;6.70;99.90
16247;DHT22;8231;50.866;7.944;2023-11-21T05:55:24;6.70;99.90
16247;DHT22;8231;50.866;7.944;2023-11-21T05:57:53;6.70;99.90
16247;DHT22;8231;50.866;7.944;2023-11-21T06:00:24;6.70;99.90
16247;DHT22;8231;50.866;7.944;2023-11-21T06:02:54;6.70;99.90
16247;DHT22;8231;50.866;7.944;2023-11-21T06:05:25;6.70;99.90
16247;DHT22;8231;50.866;7.944;2023-11-21T06:07:55;6.70;99.90
16247;DHT22;8231;50.866;7.944;2023-11-21T06:10:25;6.70;99.90
16247;DHT22;8231;50.866;7.944;2023-11-21T06:12:55;6.70;99.90
16247;DHT22;8231;50.866;7.944;2023-11-21T06:15:30;6.70;99.90
16247;DHT22;8231;50.866;7.944;2023-11-21T06:17:58;6.70;99.90
16247;DHT22;8231;50.866;7.944;2023-11-21T06:20:26;6.70;99.90
16247;DHT22;8231;50.866;7.944;2023-11-21T06:22:54;6.70;99.90
16247;DHT22;8231;50.866;7.944;2023-11-21T06:25:23;6.70;99.90
16247;DHT22;8231;50.866;7.944;2023-11-21T06:27:51;6.70;99.90
16247;DHT22;8231;50.866;7.944;2023-11-21T06:30:21;6.70;99.90
16247;DHT22;8231;50.866;7.944;2023-11-21T06:32:51;6.70;99.90
16247;DHT22;8231;50.866;7.944;2023-11-21T06:35:20;6.70;99.90
16247;DHT22;8231;50.866;7.944;2023-11-21T06:37:49;6.70;99.90
16247;DHT22;8231;50.866;7.944;2023-11-21T06:40:19;6.70;99.90
16247;DHT22;8231;50.866;7.944;2023-11-21T06:42:48;6.70;99.90
16247;DHT22;8231;50.866;7.944;2023-11-21T06:45:17;6.70;99.90
16247;DHT22;8231;50.866;7.944;2023-11-21T06:47:45;6.70;99.90
16247;DHT22;8231;50.866;7.944;2023-11-21T06:50:15;6.70;99.90
16247;DHT22;8231;50.866;7.944;2023-11-21T06:52:43;6.70;99.90
16247;DHT22;8231;50.866;7.944;2023-11-21T06:55:11;6.70;99.90
16247;DHT22;8231;50.866;7.944;2023-11-21T06:57:40;6.70;99.90
16247;DHT22;8231;50.866;7.944;2023-11-21T07:00:10;6.70;99.90
16247;DHT22;8231;50.866;7.944;2023-11-21T07:02:39;6.70;99.90
16247;DHT22;8231;50.866;7.944;2023-11-21T07:05:07;6.70;99.90
16247;DHT22;8231;50.866;7.944;2023-11-21T07:07:37;6.70;99.90
16247;DHT22;8231;50.866;7.944;2023-11-21T07:10:06;6.70;99.90
16247;DHT22;8231;50.866;7.944;2023-11-21T07:12:35;6.70;99.90
16247;DHT22;8231;50.866;7.944;2023-11-21T07:15:04;6.70;99.90
16247;DHT22;8231;50.866;7.944;2023-11-21T07:17:36;6.70;99.90
16247;DHT22;8231;50.866;7.944;2023-11-21T07:20:08;6.70;99.90
16247;DHT22;8231;50.866;7.944;2023-11-21T07:22:39;6.70;99.90
16247;DHT22;8231;50.866;7.944;2023-11-21T07:25:07;6.70;99.90
16247;DHT22;8231;50.866;7.944;2023-11-21T07:27:37;6.70;99.90
16247;DHT22;8231;50.866;7.944;2023-11-21T07:30:06;6.70;99.90
16247;DHT22;8231;50.866;7.944;2023-11-21T07:32:36;6.70;99.90
16247;DHT22;8231;50.866;7.944;2023-11-21T07:35:08;6.70;99.90
16247;DHT22;8231;50.866;7.944;2023-11-21T07:37:38;6.80;99.90
16247;DHT22;8231;50.866;7.944;2023-11-21T07:40:07;6.80;99.90
16247;DHT22;8231;50.866;7.944;2023-11-21T07:42:36;6.80;99.90
16247;DHT22;8231;50.866;7.944;2023-11-21T07:45:05;6.80;99.90
16247;DHT22;8231;50.866;7.944;2023-11-21T07:47:35;6.80;99.90
16247;DHT22;8231;50.866;7.944;2023-11-21T07:50:04;6.90;99.90
16247;DHT22;8231;50.866;7.944;2023-11-21T07:52:34;6.90;99.90
16247;DHT22;8231;50.866;7.944;2023-11-21T07:55:05;6.90;99.90
16247;DHT22;8231;50.866;7.944;2023-11-21T07:57:34;7.00;99.90
16247;DHT22;8231;50.866;7.944;2023-11-21T08:00:03;7.00;99.90
16247;DHT22;8231;50.866;7.944;2023-11-21T08:02:38;7.00;99.90
16247;DHT22;8231;50.866;7.944;2023-11-21T08:05:09;7.10;99.90
16247;DHT22;8231;50.866;7.944;2023-11-21T08:07:50;7.10;99.90
16247;DHT22;8231;50.866;7.944;2023-11-21T08:10:20;7.10;99.90
16247;DHT22;8231;50.866;7.944;2023-11-21T08:12:49;7.10;99.90
16247;DHT22;8231;50.866;7.944;2023-11-21T08:15:18;7.20;99.90
16247;DHT22;8231;50.866;7.944;2023-11-21T08:17:46;7.20;99.90
16247;DHT22;8231;50.866;7.944;2023-11-21T08:20:15;7.30;99.90
16247;DHT22;8231;50.866;7.944;2023-11-21T08:22:44;7.20;99.90
16247;DHT22;8231;50.866;7.944;2023-11-21T08:25:14;7.20;99.90
16247;DHT22;8231;50.866;7.944;2023-11-21T08:27:45;7.20;99.90
16247;DHT22;8231;50.866;7.944;2023-11-21T08:30:14;7.20;99.90
16247;DHT22;8231;50.866;7.944;2023-11-21T08:32:43;7.20;99.90
16247;DHT22;8231;50.866;7.944;2023-11-21T08:35:11;7.30;99.90
16247;DHT22;8231;50.866;7.944;2023-11-21T08:37:40;7.40;99.90
16247;DHT22;8231;50.866;7.944;2023-11-21T08:40:09;7.50;99.90
16247;DHT22;8231;50.866;7.944;2023-11-21T08:42:44;7.60;99.90
16247;DHT22;8231;50.866;7.944;2023-11-21T08:45:13;7.60;99.90
16247;DHT22;8231;50.866;7.944;2023-11-21T08:47:41;7.60;99.90
16247;DHT22;8231;50.866;7.944;2023-11-21T08:50:11;7.50;99.90
16247;DHT22;8231;50.866;7.944;2023-11-21T08:52:39;7.50;99.90
16247;DHT22;8231;50.866;7.944;2023-11-21T08:55:09;7.60;99.90
16247;DHT22;8231;50.866;7.944;2023-11-21T08:57:40;7.60;99.90
16247;DHT22;8231;50.866;7.944;2023-11-21T09:00:10;7.70;99.90
16247;DHT22;8231;50.866;7.944;2023-11-21T09:02:39;7.70;99.90
16247;DHT22;8231;50.866;7.944;2023-11-21T09:05:08;7.80;99.90
16247;DHT22;8231;50.866;7.944;2023-11-21T09:07:38;7.90;99.90
16247;DHT22;8231;50.866;7.944;2023-11-21T09:10:07;8.00;99.90
16247;DHT22;8231;50.866;7.944;2023-11-21T09:12:37;8.10;99.90
16247;DHT22;8231;50.866;7.944;2023-11-21T09:15:07;8.20;99.90
16247;DHT22;8231;50.866;7.944;2023-11-21T09:17:38;8.30;99.90
16247;DHT22;8231;50.866;7.944;2023-11-21T09:20:07;8.40;99.90
16247;DHT22;8231;50.866;7.944;2023-11-21T09:22:37;8.50;99.90
16247;DHT22;8231;50.866;7.944;2023-11-21T09:25:06;8.60;99.90
16247;DHT22;8231;50.866;7.944;2023-11-21T09:27:35;8.60;99.90
16247;DHT22;8231;50.866;7.944;2023-11-21T09:30:04;8.70;99.90
16247;DHT22;8231;50.866;7.944;2023-11-21T09:32:35;8.80;99.90
16247;DHT22;8231;50.866;7.944;2023-11-21T09:35:06;8.90;99.90
16247;DHT22;8231;50.866;7.944;2023-11-21T09:37:35;8.90;99.90
16247;DHT22;8231;50.866;7.944;2023-11-21T09:40:07;8.90;99.90
16247;DHT22;8231;50.866;7.944;2023-11-21T09:42:42;9.00;99.90
16247;DHT22;8231;50.866;7.944;2023-11-21T09:45:17;9.00;99.90
16247;DHT22;8231;50.866;7.944;2023-11-21T09:47:47;9.00;99.90
16247;DHT22;8231;50.866;7.944;2023-11-21T09:50:18;9.00;99.90
16247;DHT22;8231;50.866;7.944;2023-11-21T09:52:55;9.00;99.90
16247;DHT22;8231;50.866;7.944;2023-11-21T09:55:25;9.00;99.90
16247;DHT22;8231;50.866;7.944;2023-11-21T09:57:56;9.00;99.90
16247;DHT22;8231;50.866;7.944;2023-11-21T10:00:24;9.00;99.90
16247;DHT22;8231;50.866;7.944;2023-11-21T10:02:55;9.20;99.90
16247;DHT22;8231;50.866;7.944;2023-11-21T10:05:27;8.90;99.90
16247;DHT22;8231;50.866;7.944;2023-11-21T10:07:56;8.90;99.90
16247;DHT22;8231;50.866;7.944;2023-11-21T10:10:26;8.90;99.90
16247;DHT22;8231;50.866;7.944;2023-11-21T10:12:57;8.90;99.90
16247;DHT22;8231;50.866;7.944;2023-11-21T10:15:26;8.90;99.90
16247;DHT22;8231;50.866;7.944;2023-11-21T10:17:55;8.90;99.90
16247;DHT22;8231;50.866;7.944;2023-11-21T10:20:23;9.00;99.90
16247;DHT22;8231;50.866;7.944;2023-11-21T10:22:53;9.00;99.90
16247;DHT22;8231;50.866;7.944;2023-11-21T10:25:23;9.10;99.90
16247;DHT22;8231;50.866;7.944;2023-11-21T10:27:57;9.10;99.90
16247;DHT22;8231;50.866;7.944;2023-11-21T10:30:32;9.30;99.90
16247;DHT22;8231;50.866;7.944;2023-11-21T10:33:04;9.30;99.90
16247;DHT22;8231;50.866;7.944;2023-11-21T10:35:42;9.30;99.90
16247;DHT22;8231;50.866;7.944;2023-11-21T10:38:15;9.30;99.90
16247;DHT22;8231;50.866;7.944;2023-11-21T10:40:44;9.30;99.90
16247;DHT22;8231;50.866;7.944;2023-11-21T10:43:14;9.30;99.90
16247;DHT22;8231;50.866;7.944;2023-11-21T10:45:43;9.40;99.90
16247;DHT22;8231;50.866;7.944;2023-11-21T10:48:13;9.50;99.90
16247;DHT22;8231;50.866;7.944;2023-11-21T10:50:43;9.40;99.90
16247;DHT22;8231;50.866;7.944;2023-11-21T10:53:12;9.50;99.90
16247;DHT22;8231;50.866;7.944;2023-11-21T10:55:42;9.50;99.90
16247;DHT22;8231;50.866;7.944;2023-11-21T10:58:13;9.60;99.90
16247;DHT22;8231;50.866;7.944;2023-11-21T11:00:41;9.60;99.90
16247;DHT22;8231;50.866;7.944;2023-11-21T11:03:12;9.60;99.90
16247;DHT22;8231;50.866;7.944;2023-11-21T11:05:44;9.60;99.90
16247;DHT22;8231;50.866;7.944;2023-11-21T11:08:19;9.50;99.90
16247;DHT22;8231;50.866;7.944;2023-11-21T11:10:55;9.50;99.90
16247;DHT22;8231;50.866;7.944;2023-11-21T11:13:25;9.50;99.90
16247;DHT22;8231;50.866;7.944;2023-11-21T11:15:58;9.50;99.90
16247;DHT22;8231;50.866;7.944;2023-11-21T11:18:27;9.60;99.90
16247;DHT22;8231;50.866;7.944;2023-11-21T11:21:00;9.60;99.90
16247;DHT22;8231;50.866;7.944;2023-11-21T11:23:40;9.60;99.90
16247;DHT22;8231;50.866;7.944;2023-11-21T11:26:20;9.60;99.90
16247;DHT22;8231;50.866;7.944;2023-11-21T11:29:03;9.60;99.90
16247;DHT22;8231;50.866;7.944;2023-11-21T11:31:53;9.70;99.90
16247;DHT22;8231;50.866;7.944;2023-11-21T11:34:26;9.70;99.90
16247;DHT22;8231;50.866;7.944;2023-11-21T11:37:01;9.80;99.90
16247;DHT22;8231;50.866;7.944;2023-11-21T11:39:34;9.80;99.90
16247;DHT22;8231;50.866;7.944;2023-11-21T11:42:07;9.80;99.90
16247;DHT22;8231;50.866;7.944;2023-11-21T11:44:49;9.70;99.90
16247;DHT22;8231;50.866;7.944;2023-11-21T11:47:21;9.70;99.90
16247;DHT22;8231;50.866;7.944;2023-11-21T11:50:02;9.60;99.90
16247;DHT22;8231;50.866;7.944;2023-11-21T11:52:41;9.60;99.90
16247;DHT22;8231;50.866;7.944;2023-11-21T11:55:11;9.60;99.90
16247;DHT22;8231;50.866;7.944;2023-11-21T11:57:42;9.60;99.90
16247;DHT22;8231;50.866;7.944;2023-11-21T12:00:15;9.70;99.90
16247;DHT22;8231;50.866;7.944;2023-11-21T12:02:45;9.70;99.90
16247;DHT22;8231;50.866;7.944;2023-11-21T12:05:15;9.70;99.90
16247;DHT22;8231;50.866;7.944;2023-11-21T12:07:46;9.80;99.90
16247;DHT22;8231;50.866;7.944;2023-11-21T12:10:16;9.80;99.90
16247;DHT22;8231;50.866;7.944;2023-11-21T12:12:50;9.80;99.90
16247;DHT22;8231;50.866;7.944;2023-11-21T12:15:19;9.90;99.90
16247;DHT22;8231;50.866;7.944;2023-11-21T12:17:49;9.70;99.90
16247;DHT22;8231;50.866;7.944;2023-11-21T12:20:19;9.70;99.90
16247;DHT22;8231;50.866;7.944;2023-11-21T12:22:49;9.70;99.90
16247;DHT22;8231;50.866;7.944;2023-11-21T12:25:18;9.70;99.90
16247;DHT22;8231;50.866;7.944;2023-11-21T12:27:49;9.80;99.90
16247;DHT22;8231;50.866;7.944;2023-11-21T12:30:18;9.90;99.90
16247;DHT22;8231;50.866;7.944;2023-11-21T12:32:49;9.90;99.90
16247;DHT22;8231;50.866;7.944;2023-11-21T12:35:19;10.00;99.90
16247;DHT22;8231;50.866;7.944;2023-11-21T12:37:48;10.00;99.90
16247;DHT22;8231;50.866;7.944;2023-11-21T12:40:18;10.10;99.90
16247;DHT22;8231;50.866;7.944;2023-11-21T12:42:47;10.00;99.90
16247;DHT22;8231;50.866;7.944;2023-11-21T12:45:22;9.90;99.90
16247;DHT22;8231;50.866;7.944;2023-11-21T12:47:55;9.90;99.90
16247;DHT22;8231;50.866;7.944;2023-11-21T12:50:28;9.80;99.90
16247;DHT22;8231;50.866;7.944;2023-11-21T12:53:00;9.80;99.90
16247;DHT22;8231;50.866;7.944;2023-11-21T12:55:31;9.80;99.90
16247;DHT22;8231;50.866;7.944;2023-11-21T12:58:02;9.80;99.90
16247;DHT22;8231;50.866;7.944;2023-11-21T13:00:38;9.80;99.90
16247;DHT22;8231;50.866;7.944;2023-11-21T13:03:11;9.90;99.90
16247;DHT22;8231;50.866;7.944;2023-11-21T13:05:44;9.90;99.90
16247;DHT22;8231;50.866;7.944;2023-11-21T13:08:15;9.90;99.90
16247;DHT22;8231;50.866;7.944;2023-11-21T13:10:49;9.90;99.90
16247;DHT22;8231;50.866;7.944;2023-11-21T13:13:18;9.90;99.90
16247;DHT22;8231;50.866;7.944;2023-11-21T13:15:53;10.00;99.90
16247;DHT22;8231;50.866;7.944;2023-11-21T13:18:23;10.10;99.90
16247;DHT22;8231;50.866;7.944;2023-11-21T13:20:52;10.00;99.90
16247;DHT22;8231;50.866;7.944;2023-11-21T13:23:22;9.90;99.90
16247;DHT22;8231;50.866;7.944;2023-11-21T13:25:50;9.90;99.90
16247;DHT22;8231;50.866;7.944;2023-11-21T13:28:28;10.00;99.90
16247;DHT22;8231;50.866;7.944;2023-11-21T13:31:02;9.80;99.90
16247;DHT22;8231;50.866;7.944;2023-11-21T13:33:36;9.80;99.90
16247;DHT22;8231;50.866;7.944;2023-11-21T13:36:06;9.80;99.90
16247;DHT22;8231;50.866;7.944;2023-11-21T13:38:36;9.80;99.90
16247;DHT22;8231;50.866;7.944;2023-11-21T13:41:09;9.80;99.90
16247;DHT22;8231;50.866;7.944;2023-11-21T13:43:40;9.80;99.90
16247;DHT22;8231;50.866;7.944;2023-11-21T13:46:12;9.80;99.90
16247;DHT22;8231;50.866;7.944;2023-11-21T13:48:44;9.80;99.90
16247;DHT22;8231;50.866;7.944;2023-11-21T13:51:18;9.80;99.90
16247;DHT22;8231;50.866;7.944;2023-11-21T13:53:48;9.80;99.90
16247;DHT22;8231;50.866;7.944;2023-11-21T13:56:18;9.70;99.90
16247;DHT22;8231;50.866;7.944;2023-11-21T13:58:51;9.70;99.90
16247;DHT22;8231;50.866;7.944;2023-11-21T14:01:23;9.70;99.90
16247;DHT22;8231;50.866;7.944;2023-11-21T14:04:14;9.70;99.90
16247;DHT22;8231;50.866;7.944;2023-11-21T14:06:58;9.70;99.90
16247;DHT22;8231;50.866;7.944;2023-11-21T14:09:37;9.70;99.90
16247;DHT22;8231;50.866;7.944;2023-11-21T14:12:11;9.60;99.90
16247;DHT22;8231;50.866;7.944;2023-11-21T14:14:41;9.50;99.90
16247;DHT22;8231;50.866;7.944;2023-11-21T14:17:11;9.50;99.90
16247;DHT22;8231;50.866;7.944;2023-11-21T14:19:40;9.50;99.90
16247;DHT22;8231;50.866;7.944;2023-11-21T14:22:10;9.50;99.90
16247;DHT22;8231;50.866;7.944;2023-11-21T14:24:39;9.30;99.90
16247;DHT22;8231;50.866;7.944;2023-11-21T14:27:12;9.40;99.90
16247;DHT22;8231;50.866;7.944;2023-11-21T14:29:41;9.40;99.90
16247;DHT22;8231;50.866;7.944;2023-11-21T14:32:13;9.40;99.90
16247;DHT22;8231;50.866;7.944;2023-11-21T14:34:43;9.50;99.90
16247;DHT22;8231;50.866;7.944;2023-11-21T14:37:14;9.40;99.90
16247;DHT22;8231;50.866;7.944;2023-11-21T14:39:42;9.40;99.90
16247;DHT22;8231;50.866;7.944;2023-11-21T14:42:13;9.40;99.90
16247;DHT22;8231;50.866;7.944;2023-11-21T14:44:43;9.40;99.90
16247;DHT22;8231;50.866;7.944;2023-11-21T14:47:13;9.40;99.90
16247;DHT22;8231;50.866;7.944;2023-11-21T14:49:44;9.50;99.90
16247;DHT22;8231;50.866;7.944;2023-11-21T14:52:23;9.60;99.90
16247;DHT22;8231;50.866;7.944;2023-11-21T14:55:00;9.30;99.90
16247;DHT22;8231;50.866;7.944;2023-11-21T14:57:48;9.30;99.90
16247;DHT22;8231;50.866;7.944;2023-11-21T15:00:17;9.30;99.90
16247;DHT22;8231;50.866;7.944;2023-11-21T15:03:05;9.20;99.90
16247;DHT22;8231;50.866;7.944;2023-11-21T15:05:34;9.20;99.90
16247;DHT22;8231;50.866;7.944;2023-11-21T15:08:03;9.20;99.90
16247;DHT22;8231;50.866;7.944;2023-11-21T15:10:44;9.20;99.90
16247;DHT22;8231;50.866;7.944;2023-11-21T15:13:15;9.10;99.90
16247;DHT22;8231;50.866;7.944;2023-11-21T15:15:43;9.20;99.90
16247;DHT22;8231;50.866;7.944;2023-11-21T15:18:13;9.10;99.90
16247;DHT22;8231;50.866;7.944;2023-11-21T15:20:41;9.00;99.90
16247;DHT22;8231;50.866;7.944;2023-11-21T15:23:11;9.10;99.90
16247;DHT22;8231;50.866;7.944;2023-11-21T15:25:39;9.00;99.90
16247;DHT22;8231;50.866;7.944;2023-11-21T15:28:08;9.00;99.90
16247;DHT22;8231;50.866;7.944;2023-11-21T15:30:36;9.00;99.90
16247;DHT22;8231;50.866;7.944;2023-11-21T15:33:04;9.00;99.90
16247;DHT22;8231;50.866;7.944;2023-11-21T15:35:35;9.00;99.90
16247;DHT22;8231;50.866;7.944;2023-11-21T15:38:05;9.00;99.90
16247;DHT22;8231;50.866;7.944;2023-11-21T15:40:34;9.00;99.90
16247;DHT22;8231;50.866;7.944;2023-11-21T15:43:03;8.90;99.90
16247;DHT22;8231;50.866;7.944;2023-11-21T15:45:33;8.90;99.90
16247;DHT22;8231;50.866;7.944;2023-11-21T15:48:01;8.70;99.90
16247;DHT22;8231;50.866;7.944;2023-11-21T15:50:30;8.90;99.90
16247;DHT22;8231;50.866;7.944;2023-11-21T15:53:00;8.80;99.90
16247;DHT22;8231;50.866;7.944;2023-11-21T15:55:30;8.80;99.90
16247;DHT22;8231;50.866;7.944;2023-11-21T15:57:58;8.70;99.90
16247;DHT22;8231;50.866;7.944;2023-11-21T16:00:30;8.80;99.90
16247;DHT22;8231;50.866;7.944;2023-11-21T16:02:58;8.70;99.90
16247;DHT22;8231;50.866;7.944;2023-11-21T16:05:27;8.70;99.90
16247;DHT22;8231;50.866;7.944;2023-11-21T16:07:55;8.70;99.90
16247;DHT22;8231;50.866;7.944;2023-11-21T16:10:24;8.70;99.90
16247;DHT22;8231;50.866;7.944;2023-11-21T16:12:52;8.70;99.90
16247;DHT22;8231;50.866;7.944;2023-11-21T16:15:21;8.60;99.90
16247;DHT22;8231;50.866;7.944;2023-11-21T16:17:49;8.60;99.90
16247;DHT22;8231;50.866;7.944;2023-11-21T16:20:18;8.60;99.90
16247;DHT22;8231;50.866;7.944;2023-11-21T16:22:46;8.50;99.90